Terminal Aerodrome Forecast
Issued by NWS

Home | Current Version | Previous Version | Graphics & Text | Print | Product List | Glossary On
Versions: 1 2 3 4 5 6 7 8 9 10 11 12 13 14 15 16 17
151
FTUS43 KMPX 231120
TAFRNH
TAF
KRNH 231120Z 2312/2412 08006KT P6SM SCT006 OVC012
     FM231800 09008KT P6SM BKN020 BKN035
     FM232100 11008KT P6SM VCSH SCT020 BKN035
     FM240300 11007KT P6SM BKN006 OVC015=

USA.gov is the U.S. government's official web portal to all federal, state and local government web resources and services.